KGVT/GVT METAR and TAF weather

Enter ICAO airport designator
Station Type Date Time Source
KGVT METAR 2019/06/16 04:35 UTC NOAA

KGVT 160435Z AUTO 17011G14KT 10SM CLR 29/23 A2983 RMK AO2


Station Type Date Time Source
KGVT Decoded METAR 2019/06/16 04:35 UTC NOAA

Greenville / Majors, TX, United States (KGVT) 33-04N 096-04W
Jun 16, 2019 - 12:35 AM EDT / 2019.06.16 0435 UTC
Wind: from the S (170 degrees) at 13 MPH (11 KT) gusting to 16 MPH (14 KT):0
Visibility: 10 mile(s):0
Sky conditions: clear
Temperature: 84 F (29 C)
Dew Point: 73 F (23 C)
Relative Humidity: 70%
Pressure (altimeter): 29.83 in. Hg (1010 hPa)
ob: KGVT 160435Z AUTO 17011G14KT 10SM CLR 29/23 A2983 RMK AO2
cycle: 4

Station Type Date Time Source
KGVT TAF UTC NOAA

Error!

Example: see airport list